Middletown, OH

3:38 PM EDT on March 30, 2017 (GMT -0400)
Hook Field Municipal

Weather History for KMWO - January, 2014

Change the Weather History Date:

Monday, January 27, 2014

  Actual Average (KFFO) Record (KFFO)
Temperature  
Mean Temperature 18 °F -  
Max Temperature 38 °F 35 °F 66 °F (1999)
Min Temperature -1 °F 18 °F -13 °F (2000)
Degree Days  
Heating Degree Days 46    
Moisture  
Dew Point -4 °F    
Average Humidity 50    
Maximum Humidity 76    
Minimum Humidity 27    
Precipitation  
Precipitation 0.00 in - - ()
Sea Level Pressure  
Sea Level Pressure 30.16 in    
Wind  
Wind Speed 13 mph (WNW)    
Max Wind Speed 29 mph    
Max Gust Speed 44 mph    
Visibility 10 miles    
Events Snow    
Averages and records for this station are not official NWS values.
T = Trace of Precipitation, MM = Missing Value Source: NWS Daily Summary

Daily Weather History Graph

Daily Weather History Graph

Search for Another Location

Airport or City:

Trip Planner

Search our weather history database for the weather conditions in past years. The results will help you decide how hot, cold, wet, or windy it might be!

Date:

Astronomy

Jan. 27, 2014 Rise Set
Actual Time 7:49 AM EST 5:51 PM EST
Civil Twilight 7:20 AM EST 6:20 PM EST
Nautical Twilight 6:48 AM EST 6:53 PM EST
Astronomical Twilight 6:16 AM EST 7:24 PM EST
Moon 4:29 AM EST (1/27) 2:37 PM EST (1/27)
Length of Visible Light 11h 00m
Length of Day
10h 02m
Waning Crescent, 15% of the Moon is Illuminated
Jan 27
Waning Crescent
Jan 30
New
Feb 6
First Quarter
Feb 14
Full
Feb 22
Last Quarter

Hourly Weather History & Observations

Time (EST) Temp. Windchill Dew Point Humidity Pressure Visibility Wind Dir Wind Speed Gust Speed Precip Events Conditions
12:15 AM 37.6 °F 30.5 °F 27.5 °F 67% 29.57 in 10.0 mi SSW 10.4 mph - N/A   Overcast
12:35 AM 38.8 °F 31.6 °F 28.0 °F 65% 29.58 in 10.0 mi SW 11.5 mph - N/A   Mostly Cloudy
12:55 AM 38.8 °F 30.8 °F 27.5 °F 64% 29.59 in 10.0 mi SW 13.8 mph - N/A   Mostly Cloudy
1:15 AM 38.7 °F 26.9 °F 27.1 °F 63% 29.65 in 10.0 mi WNW 28.8 mph 41.4 mph N/A   Overcast
1:35 AM 32.5 °F 19.6 °F 22.8 °F 67% 29.69 in 10.0 mi NW 24.2 mph 38.0 mph N/A   Mostly Cloudy
1:55 AM 27.9 °F 12.8 °F 16.3 °F 62% 29.73 in 10.0 mi NW 26.5 mph 43.7 mph N/A   Overcast
2:15 AM 22.8 °F 8.1 °F 14.2 °F 69% 29.77 in 3.0 mi NW 19.6 mph 31.1 mph N/A Snow Light Snow
2:35 AM 21.7 °F 8.5 °F 15.3 °F 76% 29.80 in 1.8 mi NW 15.0 mph 20.7 mph N/A Snow Light Snow
2:55 AM 20.3 °F 6.1 °F 7.5 °F 58% 29.82 in 3.0 mi WNW 16.1 mph 32.2 mph N/A   Haze
3:15 AM 20.3 °F 7.2 °F 4.5 °F 50% 29.85 in 10.0 mi WNW 13.8 mph 20.7 mph N/A   Overcast
3:35 AM 20.3 °F 5.7 °F -3.3 °F 35% 29.87 in 10.0 mi WNW 17.3 mph 32.2 mph N/A   Overcast
3:55 AM 19.0 °F 2.4 °F -10.3 °F 27% 29.90 in 10.0 mi WNW 21.9 mph 34.5 mph N/A   Overcast
4:15 AM 18.0 °F -0.8 °F -8.9 °F 30% 29.93 in 10.0 mi West 27.6 mph 38.0 mph N/A   Overcast
4:35 AM 15.3 °F 0.8 °F -9.4 °F 33% 29.95 in 10.0 mi WNW 13.8 mph 28.8 mph N/A   Overcast
4:55 AM 15.3 °F -0.9 °F -6.2 °F 38% 29.97 in 10.0 mi WNW 17.3 mph 27.6 mph N/A   Overcast
5:15 AM 14.0 °F -2.0 °F -4.9 °F 43% 29.99 in 10.0 mi WNW 16.1 mph 23.0 mph N/A   Overcast
5:35 AM 12.7 °F -1.8 °F -4.7 °F 46% 30.01 in 10.0 mi WNW 12.7 mph 21.9 mph N/A   Scattered Clouds
5:55 AM 12.7 °F -3.6 °F -5.1 °F 45% 30.03 in 10.0 mi NW 16.1 mph 21.9 mph N/A   Clear
6:15 AM 10.2 °F -5.0 °F -6.2 °F 48% 30.04 in 10.0 mi WNW 12.7 mph 16.1 mph N/A   Clear
6:35 AM 10.0 °F -7.1 °F -5.6 °F 49% 30.07 in 10.0 mi WNW 16.1 mph 25.3 mph N/A   Clear
6:55 AM 7.7 °F -8.2 °F -7.1 °F 51% 30.09 in 10.0 mi NW 12.7 mph - N/A   Clear
7:15 AM 7.7 °F -5.8 °F -6.0 °F 54% 30.10 in 10.0 mi WNW 9.2 mph - N/A   Clear
7:35 AM 7.7 °F -7.4 °F -5.6 °F 55% 30.12 in 10.0 mi WNW 11.5 mph - N/A   Clear
7:55 AM 7.7 °F -9.5 °F -6.5 °F 52% 30.13 in 10.0 mi NW 15.0 mph - N/A   Clear
8:15 AM 7.7 °F -3.7 °F -6.2 °F 53% 30.15 in 10.0 mi WNW 6.9 mph - N/A   Clear
8:35 AM 7.7 °F -3.7 °F -6.0 °F 54% 30.17 in 10.0 mi WNW 6.9 mph 11.5 mph N/A   Clear
8:55 AM 7.7 °F -10.7 °F -6.2 °F 53% 30.19 in 10.0 mi West 17.3 mph - N/A   Clear
9:15 AM 7.7 °F -7.4 °F -6.0 °F 54% 30.20 in 10.0 mi West 11.5 mph 19.6 mph N/A   Clear
9:35 AM 7.7 °F -8.2 °F -4.9 °F 56% 30.21 in 10.0 mi West 12.7 mph 16.1 mph N/A   Clear
9:55 AM 7.7 °F -7.4 °F -6.0 °F 54% 30.22 in 10.0 mi WNW 11.5 mph 20.7 mph N/A   Clear
10:15 AM 7.7 °F -6.6 °F -5.8 °F 54% 30.23 in 10.0 mi WNW 10.4 mph 18.4 mph N/A   Clear
10:35 AM 7.7 °F -9.5 °F -7.1 °F 51% 30.24 in 10.0 mi West 15.0 mph 21.9 mph N/A   Clear
10:55 AM 7.7 °F -8.9 °F -6.7 °F 52% 30.24 in 10.0 mi WNW 13.8 mph - N/A   Clear
11:15 AM 7.7 °F -7.4 °F -6.9 °F 52% 30.25 in 10.0 mi West 11.5 mph 17.3 mph N/A   Clear
11:35 AM 7.7 °F -8.9 °F -8.1 °F 49% 30.25 in 10.0 mi West 13.8 mph 18.4 mph N/A   Clear
11:55 AM 9.0 °F -6.6 °F -7.4 °F 48% 30.25 in 10.0 mi West 12.7 mph 19.6 mph N/A   Clear
12:15 PM 8.8 °F -8.1 °F -8.9 °F 45% 30.25 in 10.0 mi WNW 15.0 mph 18.4 mph N/A   Clear
12:35 PM 10.2 °F -2.7 °F -7.4 °F 45% 30.25 in 10.0 mi West 9.2 mph 21.9 mph N/A   Clear
12:55 PM 10.2 °F -3.5 °F -8.9 °F 42% 30.25 in 10.0 mi West 10.4 mph 18.4 mph N/A   Clear
1:15 PM 10.2 °F -5.7 °F -8.0 °F 44% 30.24 in 10.0 mi West 13.8 mph 19.6 mph N/A   Clear
1:35 PM 10.2 °F -3.5 °F -8.3 °F 43% 30.24 in 10.0 mi West 10.4 mph 18.4 mph N/A   Clear
1:55 PM 11.1 °F -3.9 °F -7.1 °F 44% 30.24 in 10.0 mi West 12.7 mph 17.3 mph N/A   Clear
2:15 PM 10.2 °F -3.5 °F -8.9 °F 42% 30.23 in 10.0 mi West 10.4 mph 20.7 mph N/A   Clear
2:35 PM 10.6 °F -3.1 °F -8.7 °F 42% 30.24 in 10.0 mi West 10.4 mph 16.1 mph N/A   Clear
2:55 PM 12.7 °F -2.5 °F -6.7 °F 42% 30.25 in 10.0 mi West 13.8 mph 20.7 mph N/A   Clear
3:15 PM 12.7 °F -1.1 °F -6.9 °F 41% 30.25 in 10.0 mi West 11.5 mph 16.1 mph N/A   Clear
3:35 PM 12.7 °F -3.6 °F -7.6 °F 40% 30.25 in 10.0 mi WNW 16.1 mph 19.6 mph N/A   Clear
3:55 PM 11.8 °F 0.3 °F -7.6 °F 42% 30.25 in 10.0 mi WNW 8.1 mph 12.7 mph N/A   Clear
4:15 PM 12.2 °F -1.8 °F -6.5 °F 43% 30.25 in 10.0 mi WNW 11.5 mph 16.1 mph N/A   Clear
4:35 PM 10.4 °F -2.4 °F -7.8 °F 44% 30.26 in 10.0 mi WNW 9.2 mph - N/A   Clear
4:55 PM 10.2 °F -5.0 °F -5.6 °F 49% 30.27 in 10.0 mi West 12.7 mph 17.3 mph N/A   Scattered Clouds
5:15 PM 10.2 °F -3.5 °F -6.5 °F 47% 30.28 in 10.0 mi West 10.4 mph 16.1 mph N/A   Clear
5:35 PM 10.2 °F -3.5 °F -8.1 °F 43% 30.29 in 10.0 mi WNW 10.4 mph - N/A   Clear
5:55 PM 9.0 °F -4.2 °F -8.5 °F 45% 30.30 in 10.0 mi WNW 9.2 mph 16.1 mph N/A   Clear
6:15 PM 7.7 °F -3.7 °F -8.5 °F 48% 30.30 in 10.0 mi WNW 6.9 mph - N/A   Clear
6:35 PM 7.7 °F -2.4 °F -7.4 °F 50% 30.32 in 10.0 mi WNW 5.8 mph - N/A   Clear
6:55 PM 7.7 °F -3.7 °F -6.9 °F 52% 30.33 in 10.0 mi WNW 6.9 mph - N/A   Clear
7:15 PM 7.7 °F -0.9 °F -6.9 °F 52% 30.34 in 10.0 mi NNW 4.6 mph - N/A   Clear
7:35 PM 7.7 °F -0.9 °F -6.2 °F 53% 30.35 in 10.0 mi NW 4.6 mph - N/A   Clear
7:55 PM 7.7 °F 1.0 °F -5.8 °F 54% 30.35 in 10.0 mi NW 3.5 mph - N/A   Clear
8:15 PM 7.3 °F -4.1 °F -5.8 °F 55% 30.37 in 10.0 mi NW 6.9 mph - N/A   Clear
8:35 PM 5.0 °F -4.1 °F -7.6 °F 56% 30.37 in 10.0 mi NW 4.6 mph - N/A   Clear
8:55 PM 5.0 °F -8.1 °F -8.9 °F 53% 30.39 in 10.0 mi WNW 8.1 mph 11.5 mph N/A   Clear
9:15 PM 5.0 °F -8.1 °F -9.4 °F 52% 30.40 in 10.0 mi WNW 8.1 mph - N/A   Clear
9:35 PM 3.9 °F -8.2 °F -10.3 °F 52% 30.41 in 10.0 mi NW 6.9 mph - N/A   Clear
9:55 PM 2.3 °F -8.8 °F -11.7 °F 52% 30.41 in 10.0 mi NNW 5.8 mph - N/A   Clear
10:15 PM 1.4 °F -11.3 °F -12.8 °F 51% 30.43 in 10.0 mi NNW 6.9 mph - N/A   Clear
10:35 PM 1.0 °F -14.9 °F -13.0 °F 52% 30.43 in 10.0 mi NW 10.4 mph 17.3 mph N/A   Clear
10:55 PM 0.3 °F -9.5 °F -14.3 °F 50% 30.44 in 10.0 mi NNW 4.6 mph - N/A   Clear
11:15 PM 0.1 °F -11.4 °F -14.1 °F 51% 30.44 in 10.0 mi NNW 5.8 mph - N/A   Clear
11:35 PM -1.3 °F -13.1 °F -16.2 °F 49% 30.45 in 10.0 mi NNW 5.8 mph - N/A   Clear
11:55 PM -1.3 °F - -15.7 °F 51% 30.46 in 10.0 mi Calm Calm - N/A   Clear